Flight Track Log - Related Links

Times and Time Zones

All times are in EDT time to prevent confusion due to time zone crossing. See the N516QS flight status page for this flight to view local times or setup timezone preferences in your user account.

Time Position Orientation Groundspeed Altitude Reporting Facility
EDT Latitude Longitude Course Direction KTS MPH feet Rate Location/Type
Mon 02:48:00 PM 35.0971 -92.0501 255° West  Level Estimated
Mon 02:49:00 PM 35.0409 -92.1784 242° Southwest  Level Estimated
Mon 02:50:00 PM 34.9846 -92.3065 242° Southwest  Level Estimated
Mon 02:51:00 PM 34.9282 -92.4345 242° Southwest  Level Estimated
Mon 02:52:00 PM 34.8716 -92.5623 242° Southwest  Level Estimated
Mon 02:53:00 PM 34.8149 -92.6899 242° Southwest  Level Estimated
Mon 02:54:00 PM 34.7580 -92.8173 242° Southwest  Level Estimated
Mon 02:55:00 PM 34.7010 -92.9445 241° Southwest  Level Estimated
Mon 02:56:00 PM 34.6439 -93.0716 241° Southwest  Level Estimated
Mon 02:57:00 PM 34.5867 -93.1985 241° Southwest  Level Estimated
Mon 02:58:00 PM 34.5293 -93.3252 241° Southwest  Level Estimated
Mon 02:59:00 PM 34.4718 -93.4517 241° Southwest  Level Estimated
Mon 03:00:00 PM 34.4142 -93.5781 241° Southwest  Level Estimated
Mon 03:01:00 PM 34.3564 -93.7043 241° Southwest  Level Estimated
Mon 03:02:00 PM 34.2985 -93.8303 241° Southwest  Level Estimated
Mon 03:03:00 PM 34.2405 -93.9562 241° Southwest  Level Estimated
Mon 03:04:00 PM 34.1823 -94.0818 241° Southwest  Level Estimated
Mon 03:05:00 PM 34.1240 -94.2073 241° Southwest  Level Estimated
Mon 03:05:24 PM 41.4797 -73.5956 240° Southwest 384 442 42,800  Level New York Center
Mon 03:06:00 PM 34.0656 -94.3327 241° Southwest  Level Estimated
Mon 03:06:24 PM 41.4083 -73.7061 229° Southwest 398 458 43,000  Level New York Center
Mon 03:07:00 PM 34.0071 -94.4578 241° Southwest  Level Estimated
Mon 03:07:24 PM 41.3325 -73.8186 228° Southwest 409 471 43,000  Level New York Center
Mon 03:08:00 PM 33.9484 -94.5828 241° Southwest  Level Estimated
Mon 03:08:24 PM 41.2589 -73.9311 229° Southwest 409 471 43,000  Level New York Center
Mon 03:09:00 PM 33.8896 -94.7076 240° Southwest  Level Estimated
Mon 03:09:24 PM 41.2014 -74.0553 238° Southwest 409 471 43,000  Level New York Center
Mon 03:10:00 PM 33.8307 -94.8323 240° Southwest  Level Estimated
Mon 03:10:24 PM 41.1436 -74.1792 238° Southwest 403 464 43,000  Level New York Center
Mon 03:11:24 PM 41.0906 -74.2894 237° Southwest 403 464 43,000  Level New York Center
Mon 03:12:24 PM 41.0367 -74.4158 241° Southwest 398 458 43,000  Level New York Center
Mon 03:13:24 PM 40.9786 -74.5392 238° Southwest 398 458 43,000  Level New York Center
Mon 03:14:24 PM 40.9225 -74.6653 240° Southwest 398 458 43,000  Level New York Center
Mon 03:15:24 PM 40.8639 -74.7908 238° Southwest 398 458 43,000  Level New York Center
Mon 03:16:24 PM 40.8078 -74.9136 239° Southwest 398 458 43,000  Level New York Center
Mon 03:17:24 PM 40.7492 -75.0389 238° Southwest 398 458 43,000  Level New York Center
Mon 03:18:24 PM 40.6925 -75.1639 239° Southwest 398 458 43,000  Level New York Center
Mon 03:19:24 PM 40.6333 -75.2914 239° Southwest 398 458 43,000  Level New York Center
Mon 03:20:24 PM 40.5742 -75.4186 239° Southwest 403 464 43,000  Level New York Center
Mon 03:21:24 PM 40.5150 -75.5431 238° Southwest 403 464 43,000  Level New York Center
Mon 03:22:24 PM 40.4558 -75.6697 238° Southwest 408 470 43,000  Level New York Center
Mon 03:23:24 PM 40.3942 -75.7989 238° Southwest 413 475 43,000  Level New York Center
Mon 03:24:24 PM 40.3303 -75.9250 236° Southwest 413 475 43,000  Level New York Center
Mon 03:25:24 PM 40.2683 -76.0511 237° Southwest 423 487 43,000  Level New York Center
Mon 03:26:24 PM 40.2064 -76.1794 238° Southwest 418 481 43,000  Level New York Center
Mon 03:27:24 PM 40.1506 -76.3056 240° Southwest 418 481 43,000  Level New York Center
Mon 03:29:06 PM 40.0433 -76.5292 238° Southwest 407 468 43,000  Level Washington Center
Mon 03:30:07 PM 39.9778 -76.6583 237° Southwest 417 480 43,000  Level Washington Center
Mon 03:31:06 PM 39.9139 -76.7872 237° Southwest 423 487 43,000  Level Washington Center
Mon 03:32:06 PM 39.8522 -76.9158 238° Southwest 428 493 43,000  Level Washington Center
Mon 03:33:07 PM 39.7883 -77.0417 237° Southwest 428 493 43,000  Level Washington Center
Mon 03:34:08 PM 39.7264 -77.1697 238° Southwest 428 493 43,000  Level Washington Center
Mon 03:35:06 PM 39.6664 -77.2925 238° Southwest 428 493 43,000  Level Washington Center
Mon 03:36:07 PM 39.6019 -77.4175 236° Southwest 428 493 43,000  Level Washington Center
Mon 03:37:08 PM 39.5394 -77.5453 238° Southwest 423 487 43,000  Level Washington Center
Mon 03:38:08 PM 39.4747 -77.6725 237° Southwest 423 487 43,000  Level Washington Center
Mon 03:39:06 PM 39.4122 -77.7969 237° Southwest 423 487 43,000  Level Washington Center
Mon 03:40:06 PM 39.3556 -77.9294 241° Southwest 423 487 43,000  Level Washington Center
Mon 03:41:06 PM 39.3194 -78.0706 252° West 416 479 43,000  Level Washington Center
Mon 03:42:08 PM 39.2869 -78.2169 254° West 424 488 43,000  Level Washington Center
Mon 03:43:08 PM 39.2531 -78.3442 251° West 424 488 43,000  Level Washington Center
Mon 03:44:06 PM 39.2206 -78.4878 254° West 424 488 43,000  Level Washington Center
Mon 03:45:07 PM 39.1836 -78.6308 252° West 419 482 43,000  Level Washington Center
Mon 03:46:08 PM 39.1486 -78.7739 253° West 419 482 43,000  Level Washington Center
Mon 03:47:06 PM 39.1114 -78.9167 251° West 424 488 43,000  Level Washington Center
Mon 03:48:07 PM 39.0761 -79.0597 252° West 424 488 43,000  Level Washington Center
Mon 03:49:07 PM 39.0425 -79.2050 253° West 424 488 43,000  Level Washington Center
Mon 03:50:08 PM 39.0047 -79.3500 252° West 424 488 43,000  Level Washington Center
Mon 03:51:06 PM 38.9644 -79.5056 252° West 419 482 43,000  Level Washington Center
Mon 03:52:07 PM 38.9350 -79.6400 254° West 424 488 43,000  Level Washington Center
Mon 03:53:07 PM 38.8919 -79.7978 251° West 434 499 43,000  Level Washington Center
Mon 03:54:08 PM 38.8556 -79.9450 252° West 434 499 43,000  Level Washington Center
Mon 03:55:14 PM 38.8150 -80.0775 249° West 425 489 43,000  Level Indianapolis Center
Mon 03:56:16 PM 38.7778 -80.2214 252° West 425 489 43,000  Level Indianapolis Center
Mon 03:57:18 PM 38.7308 -80.3953 251° West 430 495 43,000  Level Indianapolis Center
Mon 03:58:20 PM 38.6939 -80.5389 252° West 425 489 43,000  Level Indianapolis Center
Mon 03:59:21 PM 38.6542 -80.6844 251° West 431 496 43,000  Level Indianapolis Center
Mon 04:00:23 PM 38.6147 -80.8294 251° West 431 496 43,000  Level Indianapolis Center
Mon 04:01:25 PM 38.5756 -80.9764 251° West 434 499 43,000  Level Indianapolis Center
Mon 04:02:27 PM 38.5350 -81.1214 250° West 432 497 43,000  Level Indianapolis Center
Mon 04:03:29 PM 38.4944 -81.2694 251° West 435 501 43,000  Level Indianapolis Center
Mon 04:04:31 PM 38.4528 -81.4172 250° West 437 503 43,000  Level Indianapolis Center
Mon 04:05:33 PM 38.4125 -81.5672 251° West 440 506 43,000  Level Indianapolis Center
Mon 04:06:35 PM 38.3631 -81.7447 250° West 439 505 43,000  Level Indianapolis Center
Mon 04:07:37 PM 38.3225 -81.8917 251° West 440 506 43,000  Level Indianapolis Center
Mon 04:08:39 PM 38.2806 -82.0383 250° West 440 506 43,000  Level Indianapolis Center
Mon 04:09:40 PM 38.2392 -82.1881 251° West 446 513 43,000  Level Indianapolis Center
Mon 04:10:42 PM 38.1969 -82.3339 250° West 441 507 43,000  Level Indianapolis Center
Mon 04:11:44 PM 38.1492 -82.5000 250° West 443 510 43,000  Level Indianapolis Center
Mon 04:12:46 PM 38.1072 -82.6497 250° West 446 513 43,000  Level Indianapolis Center
Mon 04:13:48 PM 38.0639 -82.7958 249° West 445 512 43,000  Level Indianapolis Center
Mon 04:14:50 PM 38.0211 -82.9458 250° West 451 519 43,000  Level Indianapolis Center
Mon 04:15:52 PM 37.9775 -83.0939 250° West 449 517 43,000  Level Indianapolis Center
Mon 04:16:54 PM 37.9256 -83.2669 249° West 449 517 43,000  Level Indianapolis Center
Mon 04:17:56 PM 37.8819 -83.4169 250° West 454 522 43,000  Level Indianapolis Center
Mon 04:18:58 PM 37.8383 -83.5639 249° West 449 517 43,000  Level Indianapolis Center
Mon 04:19:59 PM 37.7922 -83.7128 249° West 454 522 43,000  Level Indianapolis Center
Mon 04:21:01 PM 37.7481 -83.8608 249° West 452 520 43,000  Level Indianapolis Center
Mon 04:22:03 PM 37.7025 -84.0097 249° West 455 524 43,000  Level Indianapolis Center
Mon 04:23:05 PM 37.6486 -84.1839 249° West 455 524 43,000  Level Indianapolis Center
Mon 04:24:07 PM 37.6028 -84.3331 249° West 457 526 43,000  Level Indianapolis Center
Mon 04:25:09 PM 37.5589 -84.4803 249° West 452 520 43,000  Level Indianapolis Center
Mon 04:26:11 PM 37.5106 -84.6297 248° West 457 526 43,000  Level Indianapolis Center
Mon 04:27:13 PM 37.4642 -84.7772 248° West 456 525 43,000  Level Indianapolis Center
Mon 04:28:14 PM 37.4106 -84.9489 249° West 453 521 43,000  Level Indianapolis Center
Mon 04:29:16 PM 37.3633 -85.0975 248° West 457 526 43,000  Level Indianapolis Center
Mon 04:30:18 PM 37.3172 -85.2447 249° West 455 524 43,000  Level Indianapolis Center
Mon 04:31:20 PM 37.2697 -85.3922 248° West 456 525 43,000  Level Indianapolis Center
Mon 04:32:22 PM 37.2242 -85.5372 249° West 457 526 43,000  Level Indianapolis Center
Mon 04:33:24 PM 37.1764 -85.6856 248° West 457 526 43,000  Level Indianapolis Center
Mon 04:34:26 PM 37.1200 -85.8592 248° West 458 527 43,000  Level Indianapolis Center
Mon 04:35:28 PM 37.0719 -86.0072 248° West 457 526 43,000  Level Indianapolis Center
Mon 04:36:30 PM 37.0231 -86.1553 248° West 458 527 43,000  Level Indianapolis Center
Mon 04:37:31 PM 36.9753 -86.3022 248° West 455 524 43,000  Level Indianapolis Center
Mon 04:38:25 PM 36.9342 -86.4250 247° West 460 529 43,000  Level Memphis Center
Mon 04:39:24 PM 36.8844 -86.5700 247° West 455 524 43,000  Level Memphis Center
Mon 04:40:24 PM 36.8325 -86.7125 246° West 455 524 43,000  Level Memphis Center
Mon 04:41:24 PM 36.7825 -86.8572 247° West 455 524 43,000  Level Memphis Center
Mon 04:42:24 PM 36.7300 -86.9992 245° Southwest 455 524 43,000  Level Memphis Center
Mon 04:43:24 PM 36.6797 -87.1436 247° West 455 524 43,000  Level Memphis Center
Mon 04:44:25 PM 36.6269 -87.2853 245° Southwest 455 524 43,000  Level Memphis Center
Mon 04:45:25 PM 36.5722 -87.4294 245° Southwest 455 524 43,000  Level Memphis Center
Mon 04:46:24 PM 36.5153 -87.5839 245° Southwest 455 524 43,000  Level Memphis Center
Mon 04:47:24 PM 36.4619 -87.7250 245° Southwest 449 517 43,000  Level Memphis Center
Mon 04:48:24 PM 36.4108 -87.8661 246° West 449 517 43,000  Level Memphis Center
Mon 04:49:24 PM 36.3572 -88.0067 245° Southwest 449 517 43,000  Level Memphis Center
Mon 04:50:25 PM 36.3075 -88.1369 245° Southwest 444 511 43,000  Level Memphis Center
Mon 04:51:24 PM 36.2517 -88.2800 244° Southwest 439 505 43,000  Level Memphis Center
Mon 04:52:24 PM 36.1997 -88.4203 245° Southwest 446 513 43,000  Level Memphis Center
Mon 04:53:25 PM 36.1433 -88.5603 244° Southwest 446 513 43,000  Level Memphis Center
Mon 04:54:24 PM 36.0892 -88.7003 244° Southwest 446 513 43,000  Level Memphis Center
Mon 04:55:24 PM 36.0325 -88.8375 243° Southwest 451 519 43,000  Level Memphis Center
Mon 04:56:24 PM 35.9778 -88.9822 245° Southwest 451 519 43,000  Level Memphis Center
Mon 04:57:24 PM 35.9269 -89.1061 243° Southwest 451 519 43,000  Level Memphis Center
Mon 04:58:24 PM 35.8722 -89.2478 245° Southwest 451 519 43,000  Level Memphis Center
Mon 04:59:25 PM 35.8169 -89.3894 244° Southwest 451 519 43,000  Level Memphis Center
Mon 05:00:24 PM 35.7617 -89.5306 244° Southwest 451 519 43,000  Level Memphis Center
Mon 05:01:24 PM 35.7083 -89.6692 245° Southwest 456 525 43,000  Level Memphis Center
Mon 05:02:25 PM 35.6550 -89.8231 247° West 451 519 43,000  Level Memphis Center
Mon 05:03:25 PM 35.5992 -89.9639 244° Southwest 456 525 43,000  Level Memphis Center
Mon 05:04:24 PM 35.5431 -90.1069 244° Southwest 461 531 43,000  Level Memphis Center
Mon 05:05:24 PM 35.4850 -90.2475 243° Southwest 467 537 43,000  Level Memphis Center
Mon 05:06:24 PM 35.4350 -90.3722 244° Southwest 467 537 43,000  Level Memphis Center
Mon 05:07:24 PM 35.3764 -90.5122 243° Southwest 461 531 43,000  Level Memphis Center
Mon 05:08:25 PM 35.3200 -90.6522 244° Southwest 461 531 43,000  Level Memphis Center
Mon 05:09:24 PM 35.2633 -90.7894 243° Southwest 461 531 43,000  Level Memphis Center
Mon 05:10:24 PM 35.2064 -90.9289 243° Southwest 461 531 43,000  Level Memphis Center
Mon 05:11:24 PM 35.1514 -91.0681 244° Southwest 466 536 43,000  Level Memphis Center
Mon 05:12:25 PM 35.0900 -91.2072 242° Southwest 461 531 43,000  Level Memphis Center
Mon 05:13:25 PM 35.0347 -91.3486 245° Southwest 467 537 43,000  Level Memphis Center
Mon 05:14:25 PM 34.9667 -91.4950 240° Southwest 462 532 43,000  Level Memphis Center
Mon 05:15:25 PM 34.9069 -91.6358 243° Southwest 462 532 43,000  Level Memphis Center
Mon 05:16:25 PM 34.8492 -91.7767 243° Southwest 468 539 43,000  Level Memphis Center
Mon 05:17:25 PM 34.7911 -91.9147 243° Southwest 468 539 43,000  Level Memphis Center
Mon 05:18:25 PM 34.7331 -92.0503 243° Southwest 468 539 43,000  Level Memphis Center
Mon 05:19:25 PM 34.6769 -92.1906 244° Southwest 468 539 43,000  Level Memphis Center
Mon 05:20:25 PM 34.6350 -92.3386 251° West 468 539 43,000  Level Memphis Center
Mon 05:21:25 PM 34.5928 -92.4889 251° West 468 539 43,000  Level Memphis Center
Mon 05:22:25 PM 34.5547 -92.6394 253° West 468 539 43,000  Level Memphis Center
Mon 05:23:25 PM 34.5164 -92.7894 253° West 468 539 43,000  Level Memphis Center
Mon 05:24:25 PM 34.4758 -92.9344 251° West 468 539 43,000  Level Memphis Center
Mon 05:25:25 PM 34.4372 -93.0819 252° West 468 539 43,000  Level Memphis Center
Mon 05:27:18 PM 34.3644 -93.3606 253° West 455 524 43,000  Level Fort Worth Center
Mon 05:28:18 PM 34.3192 -93.5061 249° West 455 524 43,000  Level Fort Worth Center
Mon 05:29:18 PM 34.2672 -93.6517 247° West 460 529 43,000  Level Fort Worth Center
Mon 05:30:18 PM 34.2172 -93.7944 247° West 460 529 43,000  Level Fort Worth Center
Mon 05:31:18 PM 34.1650 -93.9372 246° West 460 529 43,000 -450 Level Fort Worth Center
Mon 05:32:18 PM 34.1125 -94.0797 246° West 460 529 42,100 -1,450 Descending Fort Worth Center
Mon 05:33:18 PM 34.0619 -94.2219 247° West 460 529 40,100 -2,100 Descending Fort Worth Center
Mon 05:34:18 PM 34.0092 -94.3692 247° West 466 536 37,900 -2,200 Descending Fort Worth Center
Mon 05:35:18 PM 33.9522 -94.5164 245° Southwest 472 543 35,700 -2,200 Descending Fort Worth Center
Mon 05:36:18 PM 33.8972 -94.6683 246° West 490 564 33,500 -2,200 Descending Fort Worth Center
Mon 05:37:18 PM 33.8400 -94.8253 246° West 502 578 31,300 -2,250 Descending Fort Worth Center
Mon 05:38:18 PM 33.7783 -94.9844 245° Southwest 514 592 29,000 -2,350 Descending Fort Worth Center
Mon 05:39:18 PM 33.7208 -95.1386 246° West 514 592 26,600 -2,350 Descending Fort Worth Center
Mon 05:40:18 PM 33.6650 -95.2847 245° Southwest 497 572 24,300 -2,200 Descending Fort Worth Center
Mon 05:41:18 PM 33.6169 -95.4131 246° West 484 557 22,200 -2,050 Descending Fort Worth Center
Mon 05:42:18 PM 33.5608 -95.5589 245° Southwest 465 535 20,200 -1,900 Descending Fort Worth Center
Mon 05:43:18 PM 33.5206 -95.6744 247° West 440 506 18,400 -1,800 Descending Fort Worth Center
Mon 05:44:18 PM 33.4681 -95.8072 245° Southwest 410 472 16,600 -1,700 Descending Fort Worth Center
Mon 05:45:18 PM 33.4256 -95.9150 245° Southwest 404 465 15,000 -1,700 Descending Fort Worth Center
Mon 05:46:18 PM 33.3769 -96.0428 246° West 404 465 13,200 -1,750 Descending Fort Worth Center
Mon 05:47:18 PM 33.3344 -96.1528 245° Southwest 386 444 11,500 -1,500 Descending Fort Worth Center
Mon 05:48:18 PM 33.2978 -96.2478 245° Southwest 340 391 10,200 -1,200 Descending Fort Worth Center
Mon 05:49:18 PM 33.2608 -96.3378 244° Southwest 307 353 9,100 -600 Descending Fort Worth Center
Mon 05:50:18 PM 33.2094 -96.4178 232° Southwest 302 348 9,000 -581 Descending Fort Worth Center
Mon 05:50:51 PM 33.1833 -96.4667 237° Southwest 303 349 8,200 -1,364 Descending Dallas / Fort Worth TRACON
Mon 05:51:46 PM 33.1333 -96.5333 228° Southwest 289 333 7,000 -1,172 Descending Dallas / Fort Worth TRACON
Mon 05:52:18 PM 33.1167 -96.5775 246° West 294 338 6,500 -587 Descending Fort Worth Center
Mon 05:53:18 PM 33.0711 -96.6550 235° Southwest 289 333 6,100 -250 Descending Fort Worth Center
Mon 05:54:18 PM 33.0297 -96.7294 236° Southwest 279 321 6,000 -600 Descending Fort Worth Center
Mon 05:55:18 PM 32.9947 -96.7942 237° Southwest 267 307 4,900 -950 Descending Fort Worth Center
Mon 05:56:18 PM 32.9678 -96.8661 246° West 252 290 4,100 -850 Descending Fort Worth Center
Mon 05:57:18 PM 32.9431 -96.9183 241° Southwest 223 257 3,200 -1,050 Descending Fort Worth Center
Mon 05:58:18 PM 32.9033 -96.9086 168° South 160 184 2,000 -1,150 Descending Fort Worth Center
Mon 05:59:18 PM 32.8761 -96.8792 138° Southeast 112 129 900 -1,100 Descending Fort Worth Center

Login

Don't have an account? Register now (free) for customized features, flight alerts, and more!